createdAt,value
2022-10-24T00:00:58.323Z,14.92
2022-10-24T00:03:24.628Z,14.92
2022-10-24T00:05:50.984Z,14.71
2022-10-24T00:08:17.328Z,14.67
2022-10-24T00:10:43.734Z,14.72
2022-10-24T00:13:10.145Z,14.69
2022-10-24T00:15:36.421Z,14.65
2022-10-24T00:18:02.764Z,14.77
2022-10-24T00:20:29.128Z,14.84
2022-10-24T00:22:55.519Z,14.86
2022-10-24T00:25:21.899Z,14.86
2022-10-24T00:27:48.219Z,14.90
2022-10-24T00:30:14.589Z,14.92
2022-10-24T00:32:41.150Z,14.80
2022-10-24T00:35:07.280Z,14.75
2022-10-24T00:37:33.618Z,14.63
2022-10-24T00:39:59.990Z,14.71
2022-10-24T00:42:26.367Z,14.67
2022-10-24T00:44:52.697Z,14.66
2022-10-24T00:47:19.044Z,14.71
2022-10-24T00:49:45.377Z,14.72
2022-10-24T00:52:11.726Z,14.69
2022-10-24T00:54:38.047Z,14.63
2022-10-24T00:57:04.455Z,14.66
2022-10-24T00:59:30.773Z,14.59
2022-10-24T01:01:57.106Z,14.62
2022-10-24T01:04:23.417Z,14.62
2022-10-24T01:06:49.753Z,14.57
2022-10-24T01:09:16.104Z,14.51
2022-10-24T01:11:42.448Z,14.46
2022-10-24T01:14:08.793Z,14.36
2022-10-24T01:16:35.110Z,14.32
2022-10-24T01:19:01.453Z,14.35
2022-10-24T01:21:27.772Z,14.42
2022-10-24T01:23:54.173Z,14.28
2022-10-24T01:26:20.507Z,14.03
2022-10-24T01:28:46.828Z,13.86
2022-10-24T01:31:13.172Z,13.85
2022-10-24T01:33:39.490Z,13.79
2022-10-24T01:36:05.842Z,13.68
2022-10-24T01:38:32.164Z,13.58
2022-10-24T01:40:58.518Z,13.69
2022-10-24T01:43:24.842Z,13.67
2022-10-24T01:45:51.271Z,13.83
2022-10-24T01:48:17.551Z,13.77
2022-10-24T01:50:43.887Z,13.76
2022-10-24T01:53:10.248Z,13.63
2022-10-24T01:55:36.584Z,13.66
2022-10-24T01:58:02.936Z,13.77
2022-10-24T02:00:29.379Z,13.84
2022-10-24T02:02:55.613Z,13.86
2022-10-24T02:05:21.937Z,13.76
2022-10-24T02:07:48.279Z,13.65
2022-10-24T02:10:14.603Z,13.56
2022-10-24T02:12:41.061Z,13.64
2022-10-24T02:15:07.275Z,13.67
2022-10-24T02:17:33.617Z,13.90
2022-10-24T02:19:59.945Z,13.89
2022-10-24T02:22:26.266Z,13.85
2022-10-24T02:24:52.612Z,13.87
2022-10-24T02:27:18.944Z,13.85
2022-10-24T02:29:45.295Z,13.75
2022-10-24T02:32:11.652Z,13.87
2022-10-24T02:34:38.031Z,13.94
2022-10-24T02:37:04.434Z,13.89
2022-10-24T02:39:30.757Z,13.89
2022-10-24T02:41:57.089Z,13.86
2022-10-24T02:44:23.411Z,13.86
2022-10-24T02:46:49.751Z,13.76
2022-10-24T02:49:16.100Z,13.71
2022-10-24T02:51:42.416Z,13.70
2022-10-24T02:54:08.768Z,13.66
2022-10-24T02:56:35.121Z,13.69
2022-10-24T02:59:01.536Z,13.68
2022-10-24T03:01:27.900Z,13.76
2022-10-24T03:03:54.179Z,13.84
2022-10-24T03:06:20.517Z,13.53
2022-10-24T03:08:46.942Z,13.56
2022-10-24T03:11:13.232Z,13.55
2022-10-24T03:13:39.606Z,13.45
2022-10-24T03:16:07.860Z,13.36
2022-10-24T03:18:32.272Z,13.48
2022-10-24T03:20:58.584Z,13.69
2022-10-24T03:23:24.931Z,13.70
2022-10-24T03:25:51.268Z,13.55
2022-10-24T03:28:17.594Z,13.49
2022-10-24T03:30:43.983Z,13.32
2022-10-24T03:33:10.324Z,13.30
2022-10-24T03:35:36.663Z,13.36
2022-10-24T03:38:02.985Z,13.35
2022-10-24T03:40:29.330Z,13.37
2022-10-24T03:42:55.673Z,13.35
2022-10-24T03:45:21.991Z,13.33
2022-10-24T03:47:48.363Z,13.31
2022-10-24T03:50:14.788Z,13.29
2022-10-24T03:52:41.052Z,13.29
2022-10-24T03:55:07.401Z,13.22
2022-10-24T03:57:33.763Z,13.24
2022-10-24T04:00:00.088Z,13.15
2022-10-24T04:02:26.492Z,13.10
2022-10-24T04:04:52.836Z,13.11
2022-10-24T04:07:19.210Z,13.16
2022-10-24T04:09:45.494Z,13.10
2022-10-24T04:12:11.878Z,12.98
2022-10-24T04:14:38.195Z,12.98
2022-10-24T04:17:04.528Z,13.06
2022-10-24T04:19:30.868Z,13.06
2022-10-24T04:21:57.198Z,13.03
2022-10-24T04:24:23.566Z,12.98
2022-10-24T04:26:50.074Z,12.98
2022-10-24T04:29:16.328Z,12.90
2022-10-24T04:31:42.676Z,12.94
2022-10-24T04:34:08.992Z,12.96
2022-10-24T04:36:35.338Z,12.92
2022-10-24T04:39:01.784Z,12.90
2022-10-24T04:41:28.114Z,12.81
2022-10-24T04:43:54.449Z,12.75
2022-10-24T04:46:20.778Z,12.81
2022-10-24T04:48:47.095Z,12.82
2022-10-24T04:51:15.354Z,12.88
2022-10-24T04:53:39.799Z,12.87
2022-10-24T04:56:06.116Z,12.84
2022-10-24T04:58:32.462Z,12.96
2022-10-24T05:00:58.865Z,13.05
2022-10-24T05:03:25.152Z,13.04
2022-10-24T05:05:51.473Z,13.12
2022-10-24T05:08:17.850Z,13.33
2022-10-24T05:10:44.196Z,13.37
2022-10-24T05:13:10.550Z,13.51
2022-10-24T05:15:36.957Z,13.55
2022-10-24T05:18:03.294Z,13.53
2022-10-24T05:20:29.679Z,13.62
2022-10-24T05:22:55.952Z,13.68
2022-10-24T05:25:22.369Z,13.69
2022-10-24T05:27:48.748Z,13.91
2022-10-24T05:30:15.074Z,13.99
2022-10-24T05:32:41.431Z,14.16
2022-10-24T05:35:07.763Z,14.32
2022-10-24T05:37:34.089Z,14.26
2022-10-24T05:40:00.430Z,14.53
2022-10-24T05:42:26.750Z,14.83
2022-10-24T05:44:53.087Z,14.93
2022-10-24T05:47:19.411Z,14.96
2022-10-24T05:49:45.754Z,15.16
2022-10-24T05:52:12.088Z,15.37
2022-10-24T05:54:48.795Z,15.46
2022-10-24T05:57:04.760Z,15.48
2022-10-24T05:59:31.105Z,15.61
2022-10-24T06:01:57.615Z,15.69
2022-10-24T06:04:23.799Z,15.88
2022-10-24T06:06:50.131Z,15.95
2022-10-24T06:09:16.481Z,16.03
2022-10-24T06:11:42.817Z,16.17
2022-10-24T06:14:09.146Z,16.21
2022-10-24T06:16:35.468Z,16.27
2022-10-24T06:19:01.810Z,16.50
2022-10-24T06:21:28.157Z,16.88
2022-10-24T06:23:54.481Z,17.27
2022-10-24T06:26:23.911Z,17.50
2022-10-24T06:28:47.181Z,17.81
2022-10-24T06:31:13.498Z,17.91
2022-10-24T06:33:39.843Z,18.27
2022-10-24T06:36:06.163Z,18.36
2022-10-24T06:38:32.575Z,18.75
2022-10-24T06:40:58.927Z,19.14
2022-10-24T06:43:25.190Z,19.21
2022-10-24T06:45:51.538Z,19.36
2022-10-24T06:48:17.839Z,19.07
2022-10-24T06:50:44.161Z,19.20
2022-10-24T06:53:10.539Z,19.65
2022-10-24T06:55:36.821Z,19.69
2022-10-24T06:58:03.159Z,19.84
2022-10-24T07:00:29.497Z,20.05
2022-10-24T07:02:55.823Z,20.06
2022-10-24T07:05:22.187Z,20.18
2022-10-24T07:07:48.636Z,20.24
2022-10-24T07:10:14.887Z,20.15
2022-10-24T07:12:41.384Z,20.26
2022-10-24T07:15:07.564Z,20.28
2022-10-24T07:17:33.895Z,20.67
2022-10-24T07:20:00.240Z,20.71
2022-10-24T07:22:28.279Z,20.63
2022-10-24T07:24:52.970Z,20.60
2022-10-24T07:27:19.373Z,20.61
2022-10-24T07:29:45.712Z,20.89
2022-10-24T07:32:12.058Z,21.30
2022-10-24T07:34:38.405Z,21.77
2022-10-24T07:37:04.734Z,22.07
2022-10-24T07:39:31.074Z,22.15
2022-10-24T07:41:57.441Z,22.43
2022-10-24T07:44:23.777Z,21.99
2022-10-24T07:46:50.106Z,22.00
2022-10-24T07:49:16.426Z,22.01
2022-10-24T07:51:42.784Z,22.15
2022-10-24T07:54:09.127Z,22.51
2022-10-24T07:56:35.460Z,23.05
2022-10-24T07:59:09.163Z,23.05
2022-10-24T08:01:28.178Z,22.85
2022-10-24T08:03:54.422Z,22.63
2022-10-24T08:06:20.770Z,22.89
2022-10-24T08:08:47.114Z,22.97
2022-10-24T08:11:13.438Z,22.77
2022-10-24T08:13:39.780Z,23.18
2022-10-24T08:16:06.210Z,23.23
2022-10-24T08:18:35.766Z,23.55
2022-10-24T08:20:58.870Z,23.80
2022-10-24T08:23:25.667Z,23.80
2022-10-24T08:25:51.541Z,23.80
2022-10-24T08:28:17.908Z,23.72
2022-10-24T08:30:44.230Z,24.01
2022-10-24T08:33:10.569Z,24.35
2022-10-24T08:35:36.914Z,25.01
2022-10-24T08:38:03.262Z,24.78
2022-10-24T08:40:29.593Z,24.72
2022-10-24T08:42:55.916Z,25.06
2022-10-24T08:45:22.268Z,24.45
2022-10-24T08:47:48.614Z,24.57
2022-10-24T08:50:14.938Z,24.94
2022-10-24T08:52:41.294Z,25.18
2022-10-24T08:55:09.115Z,25.45
2022-10-24T09:00:00.299Z,25.10
2022-10-24T09:02:26.805Z,25.67
2022-10-24T09:04:53.021Z,25.52
2022-10-24T09:07:19.419Z,25.76
2022-10-24T09:09:45.687Z,26.27
2022-10-24T09:12:12.011Z,25.83
2022-10-24T09:14:38.354Z,26.15
2022-10-24T09:17:04.707Z,25.73
2022-10-24T09:19:31.033Z,25.89
2022-10-24T09:21:57.379Z,26.15
2022-10-24T09:24:23.720Z,25.86
2022-10-24T09:26:50.040Z,26.39
2022-10-24T09:29:16.369Z,26.67
2022-10-24T09:31:42.723Z,26.49
2022-10-24T09:34:09.038Z,26.40
2022-10-24T09:36:35.387Z,26.27
2022-10-24T09:39:01.723Z,27.19
2022-10-24T09:41:28.093Z,27.32
2022-10-24T09:43:54.457Z,27.43
2022-10-24T09:46:20.821Z,27.29
2022-10-24T09:48:47.100Z,27.82
2022-10-24T09:51:13.446Z,28.11
2022-10-24T09:53:39.773Z,28.29
2022-10-24T09:56:06.100Z,27.77
2022-10-24T09:58:32.465Z,27.98
2022-10-24T10:00:58.854Z,27.95
2022-10-24T10:03:25.110Z,28.16
2022-10-24T10:05:51.456Z,27.76
2022-10-24T10:08:17.803Z,27.83
2022-10-24T10:10:44.143Z,28.31
2022-10-24T10:13:10.475Z,28.36
2022-10-24T10:15:36.819Z,28.33
2022-10-24T10:18:03.139Z,29.08
2022-10-24T10:20:29.468Z,29.40
2022-10-24T10:22:55.793Z,28.95
2022-10-24T10:25:22.119Z,28.73
2022-10-24T10:27:48.503Z,28.88
2022-10-24T10:30:14.996Z,28.81
2022-10-24T10:32:41.122Z,29.01
2022-10-24T10:35:07.478Z,29.36
2022-10-24T10:37:33.838Z,29.32
2022-10-24T10:40:00.174Z,29.40
2022-10-24T10:42:26.525Z,29.74
2022-10-24T10:44:52.886Z,29.82
2022-10-24T10:47:21.718Z,30.19
2022-10-24T10:49:45.548Z,29.70
2022-10-24T10:52:11.911Z,29.82
2022-10-24T10:54:38.235Z,29.56
2022-10-24T10:57:04.586Z,29.77
2022-10-24T10:59:30.911Z,30.19
2022-10-24T11:01:57.410Z,30.73
2022-10-24T11:04:23.600Z,30.64
2022-10-24T11:06:50.056Z,30.86
2022-10-24T11:09:16.298Z,30.12
2022-10-24T11:11:42.622Z,29.95
2022-10-24T11:14:08.986Z,30.45
2022-10-24T11:16:35.350Z,30.71
2022-10-24T11:19:01.690Z,30.37
2022-10-24T11:21:28.040Z,30.16
2022-10-24T11:23:54.381Z,30.47
2022-10-24T11:26:20.731Z,30.57
2022-10-24T11:28:47.099Z,30.59
2022-10-24T11:31:13.460Z,30.64
2022-10-24T11:33:39.777Z,30.58
2022-10-24T11:36:06.157Z,30.89
2022-10-24T11:38:32.525Z,30.87
2022-10-24T11:40:59.926Z,30.90
2022-10-24T11:43:25.196Z,31.09
2022-10-24T11:45:51.530Z,31.02
2022-10-24T11:48:17.844Z,30.91
2022-10-24T11:50:44.191Z,31.11
2022-10-24T11:53:10.533Z,31.33
2022-10-24T11:55:36.883Z,31.30
2022-10-24T11:58:03.231Z,31.42
2022-10-24T12:00:29.569Z,31.06
2022-10-24T12:02:55.936Z,31.15
2022-10-24T12:05:22.236Z,31.07
2022-10-24T12:07:48.778Z,31.22
2022-10-24T12:10:14.917Z,31.04
2022-10-24T12:12:41.236Z,31.61
2022-10-24T12:15:07.591Z,31.94
2022-10-24T12:17:33.907Z,30.77
2022-10-24T12:20:00.235Z,30.99
2022-10-24T12:24:52.927Z,31.51
2022-10-24T12:27:19.284Z,31.01
2022-10-24T12:29:45.624Z,30.89
2022-10-24T12:32:11.964Z,30.77
2022-10-24T12:34:38.305Z,31.00
2022-10-24T12:37:04.624Z,31.12
2022-10-24T12:39:30.958Z,31.45
2022-10-24T12:41:57.308Z,31.56
2022-10-24T12:44:23.629Z,31.65
2022-10-24T12:46:50.009Z,31.60
2022-10-24T12:49:16.354Z,31.75
2022-10-24T12:51:42.684Z,31.93
2022-10-24T12:54:09.000Z,31.55
2022-10-24T12:56:35.416Z,31.59
2022-10-24T12:59:01.767Z,31.91
2022-10-24T13:01:28.227Z,31.60
2022-10-24T13:03:54.407Z,30.93
2022-10-24T13:06:20.761Z,30.74
2022-10-24T13:08:47.071Z,30.55
2022-10-24T13:11:13.419Z,30.58
2022-10-24T13:13:39.784Z,30.72
2022-10-24T13:16:06.150Z,30.55
2022-10-24T13:18:32.493Z,30.12
2022-10-24T13:20:58.854Z,30.17
2022-10-24T13:23:25.168Z,29.94
2022-10-24T13:25:51.513Z,29.93
2022-10-24T13:28:17.831Z,29.83
2022-10-24T13:30:46.047Z,29.96
2022-10-24T13:33:10.562Z,29.95
2022-10-24T13:35:36.913Z,29.77
2022-10-24T13:38:07.091Z,29.45
2022-10-24T13:40:29.555Z,29.26
2022-10-24T13:42:55.905Z,29.09
2022-10-24T13:45:22.248Z,28.97
2022-10-24T13:47:48.705Z,28.96
2022-10-24T13:50:14.915Z,28.99
2022-10-24T13:52:44.491Z,28.88
2022-10-24T13:55:07.632Z,28.83
2022-10-24T13:57:34.023Z,28.79
2022-10-24T14:00:00.419Z,28.69
2022-10-24T14:02:29.766Z,28.49
2022-10-24T14:04:57.439Z,28.54
2022-10-24T14:07:19.398Z,28.42
2022-10-24T14:09:45.779Z,28.41
2022-10-24T14:12:12.057Z,28.39
2022-10-24T14:14:38.405Z,28.37
2022-10-24T14:17:04.720Z,28.32
2022-10-24T14:19:32.542Z,28.28
2022-10-24T14:21:57.384Z,28.14
2022-10-24T14:24:23.738Z,28.06
2022-10-24T14:26:50.079Z,28.08
2022-10-24T14:29:16.447Z,28.02
2022-10-24T14:31:42.800Z,27.99
2022-10-24T14:34:09.124Z,27.96
2022-10-24T14:36:35.447Z,27.86
2022-10-24T14:39:01.823Z,27.72
2022-10-24T14:41:29.893Z,27.60
2022-10-24T14:43:54.570Z,27.48
2022-10-24T14:46:25.555Z,27.24
2022-10-24T14:48:47.259Z,27.15
2022-10-24T14:51:13.595Z,27.08
2022-10-24T14:53:40.009Z,26.99
2022-10-24T14:56:06.354Z,26.87
2022-10-24T14:58:32.703Z,26.83
2022-10-24T15:00:59.074Z,26.74
2022-10-24T15:03:25.387Z,26.64
2022-10-24T15:05:51.728Z,26.57
2022-10-24T15:08:22.766Z,26.44
2022-10-24T15:10:44.441Z,26.24
2022-10-24T15:13:10.760Z,26.12
2022-10-24T15:15:37.081Z,26.10
2022-10-24T15:18:03.457Z,26.01
2022-10-24T15:20:29.769Z,25.97
2022-10-24T15:22:56.115Z,25.83
2022-10-24T15:27:49.097Z,25.74
2022-10-24T15:30:15.096Z,25.69
2022-10-24T15:32:41.495Z,25.61
2022-10-24T15:35:07.843Z,25.48
2022-10-24T15:37:34.163Z,25.38
2022-10-24T15:40:00.501Z,25.35
2022-10-24T15:42:26.877Z,25.29
2022-10-24T15:44:53.193Z,25.22
2022-10-24T15:47:19.538Z,25.12
2022-10-24T15:49:45.883Z,24.91
2022-10-24T15:52:12.237Z,24.77
2022-10-24T15:54:38.562Z,24.65
2022-10-24T15:57:05.443Z,24.60
2022-10-24T15:59:31.262Z,24.49
2022-10-24T16:01:57.623Z,24.42
2022-10-24T16:04:23.936Z,24.36
2022-10-24T16:06:50.282Z,24.33
2022-10-24T16:09:16.591Z,24.34
2022-10-24T16:11:42.999Z,24.31
2022-10-24T16:14:09.265Z,24.14
2022-10-24T16:16:35.611Z,23.99
2022-10-24T16:19:01.965Z,23.90
2022-10-24T16:21:28.315Z,23.86
2022-10-24T16:23:55.151Z,23.78
2022-10-24T16:26:21.491Z,23.73
2022-10-24T16:28:47.856Z,23.69
2022-10-24T16:31:14.222Z,23.63
2022-10-24T16:33:40.559Z,23.58
2022-10-24T16:36:06.932Z,23.46
2022-10-24T16:38:33.288Z,23.14
2022-10-24T16:40:59.613Z,22.89
2022-10-24T16:43:25.958Z,22.80
2022-10-24T16:45:52.305Z,22.80
2022-10-24T16:48:18.658Z,22.81
2022-10-24T16:50:46.420Z,22.87
2022-10-24T16:53:11.432Z,22.85
2022-10-24T16:55:37.733Z,22.74
2022-10-24T16:58:04.075Z,22.65
2022-10-24T17:00:30.564Z,22.51
2022-10-24T17:02:56.757Z,22.25
2022-10-24T17:05:23.081Z,22.14
2022-10-24T17:07:49.539Z,22.14
2022-10-24T17:10:18.382Z,22.24
2022-10-24T17:12:42.168Z,22.31
2022-10-24T17:15:08.590Z,22.31
2022-10-24T17:17:34.915Z,22.14
2022-10-24T17:20:01.263Z,21.96
2022-10-24T17:22:27.665Z,21.91
2022-10-24T17:24:53.937Z,22.00
2022-10-24T17:27:20.322Z,22.09
2022-10-24T17:29:46.665Z,22.05
2022-10-24T17:32:13.173Z,21.94
2022-10-24T17:34:41.158Z,21.90
2022-10-24T17:37:07.506Z,21.84
2022-10-24T17:39:33.907Z,21.79
2022-10-24T17:42:00.236Z,21.78
2022-10-24T17:44:26.745Z,21.78
2022-10-24T17:46:56.024Z,21.69
2022-10-24T17:49:21.714Z,21.53
2022-10-24T17:51:45.771Z,21.45
2022-10-24T17:54:12.261Z,21.33
2022-10-24T17:56:38.579Z,21.22
2022-10-24T17:59:05.034Z,21.21
2022-10-24T18:01:31.456Z,21.11
2022-10-24T18:03:57.729Z,21.03
2022-10-24T18:06:24.032Z,21.08
2022-10-24T18:08:50.413Z,21.11
2022-10-24T18:11:16.755Z,21.20
2022-10-24T18:13:43.096Z,21.15
2022-10-24T18:16:09.464Z,21.13
2022-10-24T18:18:35.808Z,21.05
2022-10-24T18:21:02.147Z,20.89
2022-10-24T18:23:28.472Z,20.79
2022-10-24T18:25:54.795Z,20.60
2022-10-24T18:28:21.143Z,20.65
2022-10-24T18:30:47.521Z,20.58
2022-10-24T18:33:13.846Z,20.52
2022-10-24T18:35:40.240Z,20.32
2022-10-24T18:38:06.560Z,20.14
2022-10-24T18:40:32.923Z,19.90
2022-10-24T18:42:59.260Z,19.85
2022-10-24T18:45:25.585Z,19.96
2022-10-24T18:47:51.946Z,20.02
2022-10-24T18:50:18.250Z,20.06
2022-10-24T18:52:44.587Z,20.03
2022-10-24T18:55:10.937Z,20.10
2022-10-24T18:57:37.293Z,20.01
2022-10-24T19:00:03.629Z,19.92
2022-10-24T19:02:30.061Z,19.72
2022-10-24T19:04:56.298Z,19.55
2022-10-24T19:07:22.619Z,19.59
2022-10-24T19:09:48.966Z,19.41
2022-10-24T19:12:15.310Z,19.25
2022-10-24T19:14:41.646Z,19.20
2022-10-24T19:17:07.997Z,19.26
2022-10-24T19:19:34.632Z,19.26
2022-10-24T19:22:00.775Z,19.35
2022-10-24T19:24:27.046Z,19.29
2022-10-24T19:26:53.392Z,19.25
2022-10-24T19:29:19.768Z,19.27
2022-10-24T19:31:46.113Z,19.17
2022-10-24T19:34:12.455Z,19.04
2022-10-24T19:36:38.767Z,19.02
2022-10-24T19:39:05.117Z,19.06
2022-10-24T19:41:31.466Z,19.18
2022-10-24T19:43:57.852Z,19.19
2022-10-24T19:46:24.236Z,19.07
2022-10-24T19:48:50.558Z,19.06
2022-10-24T19:51:16.885Z,19.07
2022-10-24T19:53:43.239Z,19.05
2022-10-24T19:56:09.588Z,18.99
2022-10-24T19:58:35.994Z,18.85
2022-10-24T20:01:02.419Z,18.85
2022-10-24T20:03:28.714Z,18.88
2022-10-24T20:05:55.061Z,18.95
2022-10-24T20:08:21.412Z,18.83
2022-10-24T20:10:47.763Z,18.69
2022-10-24T20:13:14.149Z,18.62
2022-10-24T20:15:40.504Z,18.59
2022-10-24T20:18:06.849Z,18.57
2022-10-24T20:20:33.227Z,18.52
2022-10-24T20:22:59.550Z,18.50
2022-10-24T20:25:25.875Z,18.51
2022-10-24T20:27:52.218Z,18.43
2022-10-24T20:30:18.573Z,18.34
2022-10-24T20:32:44.938Z,18.29
2022-10-24T20:35:11.281Z,18.29
2022-10-24T20:37:37.641Z,18.25
2022-10-24T20:40:03.977Z,18.19
2022-10-24T20:42:30.315Z,18.14
2022-10-24T20:44:56.672Z,18.19
2022-10-24T20:47:23.016Z,18.16
2022-10-24T20:49:49.369Z,18.07
2022-10-24T20:52:15.719Z,18.13
2022-10-24T20:54:42.048Z,18.12
2022-10-24T20:57:08.365Z,18.00
2022-10-24T20:59:34.747Z,18.00
2022-10-24T21:02:01.196Z,17.95
2022-10-24T21:04:27.411Z,18.02
2022-10-24T21:06:53.755Z,18.10
2022-10-24T21:09:20.100Z,18.06
2022-10-24T21:11:46.448Z,17.88
2022-10-24T21:14:12.795Z,17.88
2022-10-24T21:16:39.137Z,17.83
2022-10-24T21:19:05.487Z,17.77
2022-10-24T21:21:31.820Z,17.64
2022-10-24T21:24:02.328Z,17.47
2022-10-24T21:26:24.488Z,17.47
2022-10-24T21:28:53.989Z,17.49
2022-10-24T21:31:17.149Z,17.35
2022-10-24T21:33:43.515Z,17.31
2022-10-24T21:36:09.849Z,17.36
2022-10-24T21:38:36.199Z,17.34
2022-10-24T21:41:02.517Z,17.41
2022-10-24T21:43:28.846Z,17.37
2022-10-24T21:45:55.207Z,17.31
2022-10-24T21:48:23.995Z,17.22
2022-10-24T21:50:47.894Z,17.14
2022-10-24T21:53:14.233Z,17.08
2022-10-24T21:55:40.552Z,17.01
2022-10-24T21:58:06.899Z,17.08
2022-10-24T22:00:35.640Z,17.00
2022-10-24T22:02:59.552Z,16.98
2022-10-24T22:05:25.909Z,16.98
2022-10-24T22:07:52.474Z,16.97
2022-10-24T22:10:18.554Z,16.98
2022-10-24T22:12:44.892Z,16.94
2022-10-24T22:15:11.231Z,16.98
2022-10-24T22:17:37.558Z,16.91
2022-10-24T22:20:03.876Z,17.01
2022-10-24T22:22:30.197Z,17.04
2022-10-24T22:24:56.579Z,17.02
2022-10-24T22:27:22.916Z,17.00
2022-10-24T22:29:49.254Z,16.81
2022-10-24T22:32:15.676Z,16.84
2022-10-24T22:34:41.997Z,16.73
2022-10-24T22:37:08.322Z,16.63
2022-10-24T22:39:34.640Z,16.59
2022-10-24T22:42:00.967Z,16.65
2022-10-24T22:44:27.316Z,16.69
2022-10-24T22:46:53.639Z,16.66
2022-10-24T22:49:19.996Z,16.70
2022-10-24T22:51:46.314Z,16.68
2022-10-24T22:54:12.649Z,16.58
2022-10-24T22:56:38.984Z,16.68
2022-10-24T22:59:05.305Z,16.77
2022-10-24T23:01:31.765Z,16.92
2022-10-24T23:03:57.980Z,16.91
2022-10-24T23:06:24.301Z,16.89
2022-10-24T23:08:50.647Z,16.84
2022-10-24T23:11:16.982Z,16.79
2022-10-24T23:13:43.303Z,16.77
2022-10-24T23:16:09.650Z,16.69
2022-10-24T23:18:35.991Z,16.64
2022-10-24T23:21:02.315Z,16.64
2022-10-24T23:23:29.747Z,16.58
2022-10-24T23:25:54.960Z,16.52
2022-10-24T23:28:21.288Z,16.48
2022-10-24T23:30:47.628Z,16.51
2022-10-24T23:33:13.969Z,16.40
2022-10-24T23:35:40.305Z,16.24
2022-10-24T23:38:06.649Z,16.18
2022-10-24T23:40:32.961Z,15.98
2022-10-24T23:42:59.313Z,15.81
2022-10-24T23:45:25.668Z,15.74
2022-10-24T23:47:51.990Z,15.63
2022-10-24T23:50:18.330Z,15.53
2022-10-24T23:52:44.876Z,15.50
2022-10-24T23:55:11.052Z,15.65
2022-10-24T23:57:37.378Z,15.79
